sensor_id;sensor_type;location;lat;lon;timestamp;temperature;humidity
13264;DHT22;6700;51.988;7.646;2022-10-22T00:02:20;11.50;99.90
13264;DHT22;6700;51.988;7.646;2022-10-22T00:04:48;11.50;99.90
13264;DHT22;6700;51.988;7.646;2022-10-22T00:07:16;11.50;99.90
13264;DHT22;6700;51.988;7.646;2022-10-22T00:09:43;11.50;99.90
13264;DHT22;6700;51.988;7.646;2022-10-22T00:12:11;11.50;99.90
13264;DHT22;6700;51.988;7.646;2022-10-22T00:14:38;11.60;99.90
13264;DHT22;6700;51.988;7.646;2022-10-22T00:17:04;11.60;99.90
13264;DHT22;6700;51.988;7.646;2022-10-22T00:19:37;11.60;99.90
13264;DHT22;6700;51.988;7.646;2022-10-22T00:22:04;11.60;99.90
13264;DHT22;6700;51.988;7.646;2022-10-22T00:24:32;11.60;99.90
13264;DHT22;6700;51.988;7.646;2022-10-22T00:27:00;11.70;99.90
13264;DHT22;6700;51.988;7.646;2022-10-22T00:29:27;11.70;99.90
13264;DHT22;6700;51.988;7.646;2022-10-22T00:31:53;11.70;99.90
13264;DHT22;6700;51.988;7.646;2022-10-22T00:34:26;11.80;99.90
13264;DHT22;6700;51.988;7.646;2022-10-22T00:36:53;11.80;99.90
13264;DHT22;6700;51.988;7.646;2022-10-22T00:39:23;11.80;99.90
13264;DHT22;6700;51.988;7.646;2022-10-22T00:41:52;11.80;99.90
13264;DHT22;6700;51.988;7.646;2022-10-22T00:44:58;11.80;99.90
13264;DHT22;6700;51.988;7.646;2022-10-22T00:47:27;11.80;99.90
13264;DHT22;6700;51.988;7.646;2022-10-22T00:49:56;11.80;99.90
13264;DHT22;6700;51.988;7.646;2022-10-22T00:52:24;11.90;99.90
13264;DHT22;6700;51.988;7.646;2022-10-22T00:54:51;11.90;99.90
13264;DHT22;6700;51.988;7.646;2022-10-22T00:57:19;11.90;99.90
13264;DHT22;6700;51.988;7.646;2022-10-22T00:59:47;11.90;99.90
13264;DHT22;6700;51.988;7.646;2022-10-22T01:02:15;12.00;99.90
13264;DHT22;6700;51.988;7.646;2022-10-22T01:04:42;12.00;99.90
13264;DHT22;6700;51.988;7.646;2022-10-22T01:07:18;12.00;99.90
13264;DHT22;6700;51.988;7.646;2022-10-22T01:09:59;12.00;99.90
13264;DHT22;6700;51.988;7.646;2022-10-22T01:15:27;12.00;99.90
13264;DHT22;6700;51.988;7.646;2022-10-22T01:18:47;12.00;99.90
13264;DHT22;6700;51.988;7.646;2022-10-22T01:23:21;12.00;99.90
13264;DHT22;6700;51.988;7.646;2022-10-22T01:25:53;12.00;99.90
13264;DHT22;6700;51.988;7.646;2022-10-22T01:31:16;12.00;99.90
13264;DHT22;6700;51.988;7.646;2022-10-22T01:33:44;12.00;99.90
13264;DHT22;6700;51.988;7.646;2022-10-22T01:36:13;12.00;99.90
13264;DHT22;6700;51.988;7.646;2022-10-22T01:38:41;12.00;99.90
13264;DHT22;6700;51.988;7.646;2022-10-22T01:41:08;11.90;99.90
13264;DHT22;6700;51.988;7.646;2022-10-22T01:43:36;11.90;99.90
13264;DHT22;6700;51.988;7.646;2022-10-22T01:46:05;11.90;99.90
13264;DHT22;6700;51.988;7.646;2022-10-22T01:48:48;11.90;99.90
13264;DHT22;6700;51.988;7.646;2022-10-22T01:54:28;11.80;99.90
13264;DHT22;6700;51.988;7.646;2022-10-22T01:57:15;11.80;99.90
13264;DHT22;6700;51.988;7.646;2022-10-22T02:02:38;11.80;99.90
13264;DHT22;6700;51.988;7.646;2022-10-22T02:05:46;11.80;99.90
13264;DHT22;6700;51.988;7.646;2022-10-22T02:08:20;11.80;99.90
13264;DHT22;6700;51.988;7.646;2022-10-22T02:10:49;11.70;99.90
13264;DHT22;6700;51.988;7.646;2022-10-22T02:13:29;11.70;99.90
13264;DHT22;6700;51.988;7.646;2022-10-22T02:15:58;11.60;99.90
13264;DHT22;6700;51.988;7.646;2022-10-22T02:18:27;11.60;99.90
13264;DHT22;6700;51.988;7.646;2022-10-22T02:20:57;11.60;99.90
13264;DHT22;6700;51.988;7.646;2022-10-22T02:23:25;11.60;99.90
13264;DHT22;6700;51.988;7.646;2022-10-22T02:25:59;11.60;99.90
13264;DHT22;6700;51.988;7.646;2022-10-22T02:31:31;11.50;99.90
13264;DHT22;6700;51.988;7.646;2022-10-22T02:34:04;11.50;99.90
13264;DHT22;6700;51.988;7.646;2022-10-22T02:36:34;11.60;99.90
13264;DHT22;6700;51.988;7.646;2022-10-22T02:39:02;11.50;99.90
13264;DHT22;6700;51.988;7.646;2022-10-22T02:41:29;11.50;99.90
13264;DHT22;6700;51.988;7.646;2022-10-22T02:43:56;11.50;99.90
13264;DHT22;6700;51.988;7.646;2022-10-22T02:46:23;11.50;99.90
13264;DHT22;6700;51.988;7.646;2022-10-22T02:48:51;11.50;99.90
13264;DHT22;6700;51.988;7.646;2022-10-22T02:51:17;11.50;99.90
13264;DHT22;6700;51.988;7.646;2022-10-22T02:53:44;11.50;99.90
13264;DHT22;6700;51.988;7.646;2022-10-22T02:56:11;11.50;99.90
13264;DHT22;6700;51.988;7.646;2022-10-22T02:58:39;11.40;99.90
13264;DHT22;6700;51.988;7.646;2022-10-22T03:01:05;11.40;99.90
13264;DHT22;6700;51.988;7.646;2022-10-22T03:03:32;11.40;99.90
13264;DHT22;6700;51.988;7.646;2022-10-22T03:05:59;11.40;99.90
13264;DHT22;6700;51.988;7.646;2022-10-22T03:08:26;11.30;99.90
13264;DHT22;6700;51.988;7.646;2022-10-22T03:10:53;11.30;99.90
13264;DHT22;6700;51.988;7.646;2022-10-22T03:13:19;11.30;99.90
13264;DHT22;6700;51.988;7.646;2022-10-22T03:15:50;11.20;99.90
13264;DHT22;6700;51.988;7.646;2022-10-22T03:18:17;11.20;99.90
13264;DHT22;6700;51.988;7.646;2022-10-22T03:20:43;11.20;99.90
13264;DHT22;6700;51.988;7.646;2022-10-22T03:23:12;11.20;99.90
13264;DHT22;6700;51.988;7.646;2022-10-22T03:25:42;11.10;99.90
13264;DHT22;6700;51.988;7.646;2022-10-22T03:28:10;11.10;99.90
13264;DHT22;6700;51.988;7.646;2022-10-22T03:30:38;11.10;99.90
13264;DHT22;6700;51.988;7.646;2022-10-22T03:33:05;11.10;99.90
13264;DHT22;6700;51.988;7.646;2022-10-22T03:35:34;11.10;99.90
13264;DHT22;6700;51.988;7.646;2022-10-22T03:38:05;11.00;99.90
13264;DHT22;6700;51.988;7.646;2022-10-22T03:40:32;11.00;99.90
13264;DHT22;6700;51.988;7.646;2022-10-22T03:42:58;11.00;99.90
13264;DHT22;6700;51.988;7.646;2022-10-22T03:45:25;11.00;99.90
13264;DHT22;6700;51.988;7.646;2022-10-22T03:47:52;11.00;99.90
13264;DHT22;6700;51.988;7.646;2022-10-22T03:50:19;10.90;99.90
13264;DHT22;6700;51.988;7.646;2022-10-22T03:52:46;10.90;99.90
13264;DHT22;6700;51.988;7.646;2022-10-22T03:55:12;10.90;99.90
13264;DHT22;6700;51.988;7.646;2022-10-22T03:57:39;10.90;99.90
13264;DHT22;6700;51.988;7.646;2022-10-22T04:00:07;10.90;99.90
13264;DHT22;6700;51.988;7.646;2022-10-22T04:02:34;10.90;99.90
13264;DHT22;6700;51.988;7.646;2022-10-22T04:05:01;10.90;99.90
13264;DHT22;6700;51.988;7.646;2022-10-22T04:07:28;10.80;99.90
13264;DHT22;6700;51.988;7.646;2022-10-22T04:09:54;10.80;99.90
13264;DHT22;6700;51.988;7.646;2022-10-22T04:12:21;10.80;99.90
13264;DHT22;6700;51.988;7.646;2022-10-22T04:14:48;10.80;99.90
13264;DHT22;6700;51.988;7.646;2022-10-22T04:17:15;10.80;99.90
13264;DHT22;6700;51.988;7.646;2022-10-22T04:19:42;10.70;99.90
13264;DHT22;6700;51.988;7.646;2022-10-22T04:22:08;10.70;99.90
13264;DHT22;6700;51.988;7.646;2022-10-22T04:24:35;10.70;99.90
13264;DHT22;6700;51.988;7.646;2022-10-22T04:27:02;10.70;99.90
13264;DHT22;6700;51.988;7.646;2022-10-22T04:29:29;10.70;99.90
13264;DHT22;6700;51.988;7.646;2022-10-22T04:31:56;10.70;99.90
13264;DHT22;6700;51.988;7.646;2022-10-22T04:34:26;10.70;99.90
13264;DHT22;6700;51.988;7.646;2022-10-22T04:36:54;10.70;99.90
13264;DHT22;6700;51.988;7.646;2022-10-22T04:39:21;10.70;99.90
13264;DHT22;6700;51.988;7.646;2022-10-22T04:41:48;10.70;99.90
13264;DHT22;6700;51.988;7.646;2022-10-22T04:44:14;10.70;99.90
13264;DHT22;6700;51.988;7.646;2022-10-22T04:46:44;10.70;99.90
13264;DHT22;6700;51.988;7.646;2022-10-22T04:49:11;10.70;99.90
13264;DHT22;6700;51.988;7.646;2022-10-22T04:51:38;10.70;99.90
13264;DHT22;6700;51.988;7.646;2022-10-22T04:54:05;10.80;99.90
13264;DHT22;6700;51.988;7.646;2022-10-22T04:56:32;10.80;99.90
13264;DHT22;6700;51.988;7.646;2022-10-22T04:59:01;10.80;99.90
13264;DHT22;6700;51.988;7.646;2022-10-22T05:01:31;10.80;99.90
13264;DHT22;6700;51.988;7.646;2022-10-22T05:04:05;10.80;99.90
13264;DHT22;6700;51.988;7.646;2022-10-22T05:06:34;10.90;99.90
13264;DHT22;6700;51.988;7.646;2022-10-22T05:09:04;10.80;99.90
13264;DHT22;6700;51.988;7.646;2022-10-22T05:11:34;10.80;99.90
13264;DHT22;6700;51.988;7.646;2022-10-22T05:14:03;10.80;99.90
13264;DHT22;6700;51.988;7.646;2022-10-22T05:16:31;10.90;99.90
13264;DHT22;6700;51.988;7.646;2022-10-22T05:18:59;10.80;99.90
13264;DHT22;6700;51.988;7.646;2022-10-22T05:21:27;10.80;99.90
13264;DHT22;6700;51.988;7.646;2022-10-22T05:23:54;10.80;99.90
13264;DHT22;6700;51.988;7.646;2022-10-22T05:26:22;10.90;99.90
13264;DHT22;6700;51.988;7.646;2022-10-22T05:28:50;10.80;99.90
13264;DHT22;6700;51.988;7.646;2022-10-22T05:31:18;10.80;99.90
13264;DHT22;6700;51.988;7.646;2022-10-22T05:33:45;10.80;99.90
13264;DHT22;6700;51.988;7.646;2022-10-22T05:36:15;10.80;99.90
13264;DHT22;6700;51.988;7.646;2022-10-22T05:38:42;10.80;99.90
13264;DHT22;6700;51.988;7.646;2022-10-22T05:41:12;10.70;99.90
13264;DHT22;6700;51.988;7.646;2022-10-22T05:43:39;10.80;99.90
13264;DHT22;6700;51.988;7.646;2022-10-22T05:46:09;10.70;99.90
13264;DHT22;6700;51.988;7.646;2022-10-22T05:48:36;10.70;99.90
13264;DHT22;6700;51.988;7.646;2022-10-22T05:51:08;10.70;99.90
13264;DHT22;6700;51.988;7.646;2022-10-22T05:53:37;10.70;99.90
13264;DHT22;6700;51.988;7.646;2022-10-22T05:56:15;10.70;99.90
13264;DHT22;6700;51.988;7.646;2022-10-22T05:58:43;10.70;99.90
13264;DHT22;6700;51.988;7.646;2022-10-22T06:03:41;10.70;99.90
13264;DHT22;6700;51.988;7.646;2022-10-22T06:06:31;10.70;99.90
13264;DHT22;6700;51.988;7.646;2022-10-22T06:11:48;10.60;99.90
13264;DHT22;6700;51.988;7.646;2022-10-22T06:14:16;10.70;99.90
13264;DHT22;6700;51.988;7.646;2022-10-22T06:16:43;10.60;99.90
13264;DHT22;6700;51.988;7.646;2022-10-22T06:19:12;10.60;99.90
13264;DHT22;6700;51.988;7.646;2022-10-22T06:21:39;10.60;99.90
13264;DHT22;6700;51.988;7.646;2022-10-22T06:24:06;10.60;99.90
13264;DHT22;6700;51.988;7.646;2022-10-22T06:26:33;10.60;99.90
13264;DHT22;6700;51.988;7.646;2022-10-22T06:29:00;10.70;99.90
13264;DHT22;6700;51.988;7.646;2022-10-22T06:31:28;10.70;99.90
13264;DHT22;6700;51.988;7.646;2022-10-22T06:33:58;10.70;99.90
13264;DHT22;6700;51.988;7.646;2022-10-22T06:36:24;10.80;99.90
13264;DHT22;6700;51.988;7.646;2022-10-22T06:38:54;10.90;99.90
13264;DHT22;6700;51.988;7.646;2022-10-22T06:41:22;10.90;99.90
13264;DHT22;6700;51.988;7.646;2022-10-22T06:43:55;11.00;99.90
13264;DHT22;6700;51.988;7.646;2022-10-22T06:46:24;11.10;99.90
13264;DHT22;6700;51.988;7.646;2022-10-22T06:48:56;11.10;99.90
13264;DHT22;6700;51.988;7.646;2022-10-22T06:51:23;11.10;99.90
13264;DHT22;6700;51.988;7.646;2022-10-22T06:53:50;11.20;99.90
13264;DHT22;6700;51.988;7.646;2022-10-22T06:56:20;11.20;99.90
13264;DHT22;6700;51.988;7.646;2022-10-22T06:58:48;11.30;99.90
13264;DHT22;6700;51.988;7.646;2022-10-22T07:01:18;11.30;99.90
13264;DHT22;6700;51.988;7.646;2022-10-22T07:03:45;11.30;99.90
13264;DHT22;6700;51.988;7.646;2022-10-22T07:06:13;11.40;99.90
13264;DHT22;6700;51.988;7.646;2022-10-22T07:08:40;11.40;99.90
13264;DHT22;6700;51.988;7.646;2022-10-22T07:11:22;11.40;99.90
13264;DHT22;6700;51.988;7.646;2022-10-22T07:13:49;11.40;99.90
13264;DHT22;6700;51.988;7.646;2022-10-22T07:16:17;11.50;99.90
13264;DHT22;6700;51.988;7.646;2022-10-22T07:18:45;11.50;99.90
13264;DHT22;6700;51.988;7.646;2022-10-22T07:21:13;11.60;99.90
13264;DHT22;6700;51.988;7.646;2022-10-22T07:23:41;11.70;99.90
13264;DHT22;6700;51.988;7.646;2022-10-22T07:26:08;11.80;99.90
13264;DHT22;6700;51.988;7.646;2022-10-22T07:28:36;11.80;99.90
13264;DHT22;6700;51.988;7.646;2022-10-22T07:31:06;11.90;99.90
13264;DHT22;6700;51.988;7.646;2022-10-22T07:33:34;12.00;99.90
13264;DHT22;6700;51.988;7.646;2022-10-22T07:36:03;12.00;99.90
13264;DHT22;6700;51.988;7.646;2022-10-22T07:38:30;12.20;99.90
13264;DHT22;6700;51.988;7.646;2022-10-22T07:40:58;12.30;99.90
13264;DHT22;6700;51.988;7.646;2022-10-22T07:43:24;12.40;99.90
13264;DHT22;6700;51.988;7.646;2022-10-22T07:45:52;12.40;99.90
13264;DHT22;6700;51.988;7.646;2022-10-22T07:48:22;12.50;99.90
13264;DHT22;6700;51.988;7.646;2022-10-22T07:50:50;12.70;99.90
13264;DHT22;6700;51.988;7.646;2022-10-22T07:53:17;12.90;99.90
13264;DHT22;6700;51.988;7.646;2022-10-22T07:55:47;13.10;99.90
13264;DHT22;6700;51.988;7.646;2022-10-22T07:58:15;13.40;99.90
13264;DHT22;6700;51.988;7.646;2022-10-22T08:00:41;13.60;99.90
13264;DHT22;6700;51.988;7.646;2022-10-22T08:03:12;13.70;99.90
13264;DHT22;6700;51.988;7.646;2022-10-22T08:05:40;13.80;99.90
13264;DHT22;6700;51.988;7.646;2022-10-22T08:08:10;13.90;99.90
13264;DHT22;6700;51.988;7.646;2022-10-22T08:10:37;13.90;99.90
13264;DHT22;6700;51.988;7.646;2022-10-22T08:13:04;13.90;99.90
13264;DHT22;6700;51.988;7.646;2022-10-22T08:15:31;14.00;99.90
13264;DHT22;6700;51.988;7.646;2022-10-22T08:17:58;14.00;99.90
13264;DHT22;6700;51.988;7.646;2022-10-22T08:20:25;14.00;99.90
13264;DHT22;6700;51.988;7.646;2022-10-22T08:22:52;14.10;99.90
13264;DHT22;6700;51.988;7.646;2022-10-22T08:25:18;14.10;99.90
13264;DHT22;6700;51.988;7.646;2022-10-22T08:27:45;14.10;99.90
13264;DHT22;6700;51.988;7.646;2022-10-22T08:30:12;14.30;99.90
13264;DHT22;6700;51.988;7.646;2022-10-22T08:32:40;14.30;99.90
13264;DHT22;6700;51.988;7.646;2022-10-22T08:35:07;14.40;99.90
13264;DHT22;6700;51.988;7.646;2022-10-22T08:37:34;14.50;99.90
13264;DHT22;6700;51.988;7.646;2022-10-22T08:40:02;14.70;99.90
13264;DHT22;6700;51.988;7.646;2022-10-22T08:42:49;15.00;99.90
13264;DHT22;6700;51.988;7.646;2022-10-22T08:50:45;15.20;99.90
13264;DHT22;6700;51.988;7.646;2022-10-22T08:53:38;15.20;99.90
13264;DHT22;6700;51.988;7.646;2022-10-22T08:56:06;15.20;99.90
13264;DHT22;6700;51.988;7.646;2022-10-22T09:01:10;15.20;99.90
13264;DHT22;6700;51.988;7.646;2022-10-22T09:04:03;15.30;99.90
13264;DHT22;6700;51.988;7.646;2022-10-22T09:06:34;15.20;99.90
13264;DHT22;6700;51.988;7.646;2022-10-22T09:09:15;15.30;99.90
13264;DHT22;6700;51.988;7.646;2022-10-22T09:11:48;15.30;99.90
13264;DHT22;6700;51.988;7.646;2022-10-22T09:14:18;15.30;99.90
13264;DHT22;6700;51.988;7.646;2022-10-22T09:17:32;15.30;99.90
13264;DHT22;6700;51.988;7.646;2022-10-22T09:25:17;15.70;99.90
13264;DHT22;6700;51.988;7.646;2022-10-22T09:27:40;15.80;99.90
13264;DHT22;6700;51.988;7.646;2022-10-22T09:30:22;16.00;99.90
13264;DHT22;6700;51.988;7.646;2022-10-22T09:32:59;16.10;99.90
13264;DHT22;6700;51.988;7.646;2022-10-22T09:35:27;16.20;99.90
13264;DHT22;6700;51.988;7.646;2022-10-22T09:37:55;16.20;99.90
13264;DHT22;6700;51.988;7.646;2022-10-22T09:40:22;16.20;99.90
13264;DHT22;6700;51.988;7.646;2022-10-22T09:42:49;16.30;99.90
13264;DHT22;6700;51.988;7.646;2022-10-22T09:45:23;16.30;99.90
13264;DHT22;6700;51.988;7.646;2022-10-22T09:48:08;16.40;99.90
13264;DHT22;6700;51.988;7.646;2022-10-22T09:53:42;16.40;99.90
13264;DHT22;6700;51.988;7.646;2022-10-22T09:56:26;16.40;99.90
13264;DHT22;6700;51.988;7.646;2022-10-22T09:58:57;16.30;99.90
13264;DHT22;6700;51.988;7.646;2022-10-22T10:01:27;16.30;99.90
13264;DHT22;6700;51.988;7.646;2022-10-22T10:04:06;16.20;99.90
13264;DHT22;6700;51.988;7.646;2022-10-22T10:06:36;16.20;99.90
13264;DHT22;6700;51.988;7.646;2022-10-22T10:09:25;16.20;99.90
13264;DHT22;6700;51.988;7.646;2022-10-22T10:12:07;16.10;99.90
13264;DHT22;6700;51.988;7.646;2022-10-22T10:15:00;16.10;99.90
13264;DHT22;6700;51.988;7.646;2022-10-22T10:23:22;16.10;99.90
13264;DHT22;6700;51.988;7.646;2022-10-22T10:31:41;16.10;99.90
13264;DHT22;6700;51.988;7.646;2022-10-22T10:42:49;16.20;99.90
13264;DHT22;6700;51.988;7.646;2022-10-22T10:48:30;16.30;99.90
13264;DHT22;6700;51.988;7.646;2022-10-22T10:51:02;16.40;99.90
13264;DHT22;6700;51.988;7.646;2022-10-22T10:53:56;16.50;99.90
13264;DHT22;6700;51.988;7.646;2022-10-22T10:56:48;16.50;99.90
13264;DHT22;6700;51.988;7.646;2022-10-22T11:05:02;16.50;99.90
13264;DHT22;6700;51.988;7.646;2022-10-22T11:07:46;16.50;99.90
13264;DHT22;6700;51.988;7.646;2022-10-22T11:13:34;16.40;99.90
13264;DHT22;6700;51.988;7.646;2022-10-22T11:16:39;16.50;99.90
13264;DHT22;6700;51.988;7.646;2022-10-22T11:19:22;16.50;99.90
13264;DHT22;6700;51.988;7.646;2022-10-22T11:22:32;16.50;99.90
13264;DHT22;6700;51.988;7.646;2022-10-22T11:27:49;16.60;99.90
13264;DHT22;6700;51.988;7.646;2022-10-22T11:30:22;16.70;99.90
13264;DHT22;6700;51.988;7.646;2022-10-22T11:32:55;16.80;99.90
13264;DHT22;6700;51.988;7.646;2022-10-22T11:35:42;16.90;99.90
13264;DHT22;6700;51.988;7.646;2022-10-22T11:38:15;16.90;99.90
13264;DHT22;6700;51.988;7.646;2022-10-22T11:41:09;16.90;99.90
13264;DHT22;6700;51.988;7.646;2022-10-22T11:46:42;17.00;99.90
13264;DHT22;6700;51.988;7.646;2022-10-22T11:51:40;17.00;99.90
13264;DHT22;6700;51.988;7.646;2022-10-22T11:54:43;16.80;99.90
13264;DHT22;6700;51.988;7.646;2022-10-22T11:57:20;16.60;99.90
13264;DHT22;6700;51.988;7.646;2022-10-22T11:59:52;16.30;99.90
13264;DHT22;6700;51.988;7.646;2022-10-22T12:05:31;16.00;99.90
13264;DHT22;6700;51.988;7.646;2022-10-22T12:10:59;15.90;99.90
13264;DHT22;6700;51.988;7.646;2022-10-22T12:13:29;15.90;99.90
13264;DHT22;6700;51.988;7.646;2022-10-22T12:16:00;15.90;99.90
13264;DHT22;6700;51.988;7.646;2022-10-22T12:18:40;15.80;99.90
13264;DHT22;6700;51.988;7.646;2022-10-22T12:21:12;15.70;99.90
13264;DHT22;6700;51.988;7.646;2022-10-22T12:23:40;15.50;99.90
13264;DHT22;6700;51.988;7.646;2022-10-22T12:26:28;15.50;99.90
13264;DHT22;6700;51.988;7.646;2022-10-22T12:28:58;15.40;99.90
13264;DHT22;6700;51.988;7.646;2022-10-22T12:31:25;15.40;99.90
13264;DHT22;6700;51.988;7.646;2022-10-22T12:33:59;15.40;99.90
13264;DHT22;6700;51.988;7.646;2022-10-22T12:36:28;15.30;99.90
13264;DHT22;6700;51.988;7.646;2022-10-22T12:38:59;15.30;99.90
13264;DHT22;6700;51.988;7.646;2022-10-22T12:41:33;15.20;99.90
13264;DHT22;6700;51.988;7.646;2022-10-22T12:44:02;15.20;99.90
13264;DHT22;6700;51.988;7.646;2022-10-22T12:46:32;15.20;99.90
13264;DHT22;6700;51.988;7.646;2022-10-22T12:49:01;15.20;99.90
13264;DHT22;6700;51.988;7.646;2022-10-22T12:51:28;15.20;99.90
13264;DHT22;6700;51.988;7.646;2022-10-22T12:53:59;15.20;99.90
13264;DHT22;6700;51.988;7.646;2022-10-22T12:56:34;15.30;99.90
13264;DHT22;6700;51.988;7.646;2022-10-22T13:01:52;15.40;99.90
13264;DHT22;6700;51.988;7.646;2022-10-22T13:04:30;15.40;99.90
13264;DHT22;6700;51.988;7.646;2022-10-22T13:09:57;15.50;99.90
13264;DHT22;6700;51.988;7.646;2022-10-22T13:12:34;15.50;99.90
13264;DHT22;6700;51.988;7.646;2022-10-22T13:18:17;15.50;99.90
13264;DHT22;6700;51.988;7.646;2022-10-22T13:20:56;15.50;99.90
13264;DHT22;6700;51.988;7.646;2022-10-22T13:23:26;15.50;99.90
13264;DHT22;6700;51.988;7.646;2022-10-22T13:26:12;15.50;99.90
13264;DHT22;6700;51.988;7.646;2022-10-22T13:28:40;15.50;99.90
13264;DHT22;6700;51.988;7.646;2022-10-22T13:31:28;15.50;99.90
13264;DHT22;6700;51.988;7.646;2022-10-22T13:34:00;15.50;99.90
13264;DHT22;6700;51.988;7.646;2022-10-22T13:36:34;15.50;99.90
13264;DHT22;6700;51.988;7.646;2022-10-22T13:39:02;15.50;99.90
13264;DHT22;6700;51.988;7.646;2022-10-22T13:41:30;15.60;99.90
13264;DHT22;6700;51.988;7.646;2022-10-22T13:44:00;15.60;99.90
13264;DHT22;6700;51.988;7.646;2022-10-22T13:46:27;15.60;99.90
13264;DHT22;6700;51.988;7.646;2022-10-22T13:48:55;15.60;99.90
13264;DHT22;6700;51.988;7.646;2022-10-22T13:51:27;15.70;99.90
13264;DHT22;6700;51.988;7.646;2022-10-22T13:53:55;15.70;99.90
13264;DHT22;6700;51.988;7.646;2022-10-22T13:56:22;15.70;99.90
13264;DHT22;6700;51.988;7.646;2022-10-22T13:58:49;15.70;99.90
13264;DHT22;6700;51.988;7.646;2022-10-22T14:01:21;15.80;99.90
13264;DHT22;6700;51.988;7.646;2022-10-22T14:03:52;15.80;99.90
13264;DHT22;6700;51.988;7.646;2022-10-22T14:06:21;15.80;99.90
13264;DHT22;6700;51.988;7.646;2022-10-22T14:08:56;15.70;99.90
13264;DHT22;6700;51.988;7.646;2022-10-22T14:11:25;15.70;99.90
13264;DHT22;6700;51.988;7.646;2022-10-22T14:13:53;15.70;99.90
13264;DHT22;6700;51.988;7.646;2022-10-22T14:16:24;15.70;99.90
13264;DHT22;6700;51.988;7.646;2022-10-22T14:18:51;15.60;99.90
13264;DHT22;6700;51.988;7.646;2022-10-22T14:21:19;15.60;99.90
13264;DHT22;6700;51.988;7.646;2022-10-22T14:23:47;15.50;99.90
13264;DHT22;6700;51.988;7.646;2022-10-22T14:26:29;15.50;99.90
13264;DHT22;6700;51.988;7.646;2022-10-22T14:29:01;15.40;99.90
13264;DHT22;6700;51.988;7.646;2022-10-22T14:31:41;15.40;99.90
13264;DHT22;6700;51.988;7.646;2022-10-22T14:34:11;15.40;99.90
13264;DHT22;6700;51.988;7.646;2022-10-22T14:36:38;15.30;99.90
13264;DHT22;6700;51.988;7.646;2022-10-22T14:39:05;15.40;99.90
13264;DHT22;6700;51.988;7.646;2022-10-22T14:41:32;15.40;99.90
13264;DHT22;6700;51.988;7.646;2022-10-22T14:43:59;15.50;99.90
13264;DHT22;6700;51.988;7.646;2022-10-22T14:46:26;15.50;99.90
13264;DHT22;6700;51.988;7.646;2022-10-22T14:48:52;15.50;99.90
13264;DHT22;6700;51.988;7.646;2022-10-22T14:51:20;15.50;99.90
13264;DHT22;6700;51.988;7.646;2022-10-22T14:53:47;15.50;99.90
13264;DHT22;6700;51.988;7.646;2022-10-22T14:56:16;15.50;99.90
13264;DHT22;6700;51.988;7.646;2022-10-22T14:58:44;15.40;99.90
13264;DHT22;6700;51.988;7.646;2022-10-22T15:01:11;15.40;99.90
13264;DHT22;6700;51.988;7.646;2022-10-22T15:03:38;15.40;99.90
13264;DHT22;6700;51.988;7.646;2022-10-22T15:06:06;15.30;99.90
13264;DHT22;6700;51.988;7.646;2022-10-22T15:08:33;15.30;99.90
13264;DHT22;6700;51.988;7.646;2022-10-22T15:11:05;15.30;99.90
13264;DHT22;6700;51.988;7.646;2022-10-22T15:13:32;15.30;99.90
13264;DHT22;6700;51.988;7.646;2022-10-22T15:16:00;15.40;99.90
13264;DHT22;6700;51.988;7.646;2022-10-22T15:18:27;15.40;99.90
13264;DHT22;6700;51.988;7.646;2022-10-22T15:20:59;15.40;99.90
13264;DHT22;6700;51.988;7.646;2022-10-22T15:23:27;15.40;99.90
13264;DHT22;6700;51.988;7.646;2022-10-22T15:25:54;15.30;99.90
13264;DHT22;6700;51.988;7.646;2022-10-22T15:28:22;15.30;99.90
13264;DHT22;6700;51.988;7.646;2022-10-22T15:30:54;15.20;99.90
13264;DHT22;6700;51.988;7.646;2022-10-22T15:33:21;15.10;99.90
13264;DHT22;6700;51.988;7.646;2022-10-22T15:35:48;15.00;99.90
13264;DHT22;6700;51.988;7.646;2022-10-22T15:38:14;14.90;99.90
13264;DHT22;6700;51.988;7.646;2022-10-22T15:40:41;14.80;99.90
13264;DHT22;6700;51.988;7.646;2022-10-22T15:43:08;14.70;99.90
13264;DHT22;6700;51.988;7.646;2022-10-22T15:45:35;14.60;99.90
13264;DHT22;6700;51.988;7.646;2022-10-22T15:48:02;14.60;99.90
13264;DHT22;6700;51.988;7.646;2022-10-22T15:50:29;14.50;99.90
13264;DHT22;6700;51.988;7.646;2022-10-22T15:52:56;14.40;99.90
13264;DHT22;6700;51.988;7.646;2022-10-22T15:55:23;14.40;99.90
13264;DHT22;6700;51.988;7.646;2022-10-22T15:57:53;14.30;99.90
13264;DHT22;6700;51.988;7.646;2022-10-22T16:00:24;14.20;99.90
13264;DHT22;6700;51.988;7.646;2022-10-22T16:02:52;14.10;99.90
13264;DHT22;6700;51.988;7.646;2022-10-22T16:05:20;14.10;99.90
13264;DHT22;6700;51.988;7.646;2022-10-22T16:07:46;14.00;99.90
13264;DHT22;6700;51.988;7.646;2022-10-22T16:10:13;13.90;99.90
13264;DHT22;6700;51.988;7.646;2022-10-22T16:12:40;13.90;99.90
13264;DHT22;6700;51.988;7.646;2022-10-22T16:15:08;13.80;99.90
13264;DHT22;6700;51.988;7.646;2022-10-22T16:17:35;13.80;99.90
13264;DHT22;6700;51.988;7.646;2022-10-22T16:20:02;13.80;99.90
13264;DHT22;6700;51.988;7.646;2022-10-22T16:22:29;13.80;99.90
13264;DHT22;6700;51.988;7.646;2022-10-22T16:24:56;13.70;99.90
13264;DHT22;6700;51.988;7.646;2022-10-22T16:27:22;13.70;99.90
13264;DHT22;6700;51.988;7.646;2022-10-22T16:29:49;13.70;99.90
13264;DHT22;6700;51.988;7.646;2022-10-22T16:32:16;13.60;99.90
13264;DHT22;6700;51.988;7.646;2022-10-22T16:34:43;13.60;99.90
13264;DHT22;6700;51.988;7.646;2022-10-22T16:37:10;13.50;99.90
13264;DHT22;6700;51.988;7.646;2022-10-22T16:39:37;13.50;99.90
13264;DHT22;6700;51.988;7.646;2022-10-22T16:42:04;13.40;99.90
13264;DHT22;6700;51.988;7.646;2022-10-22T16:44:30;13.30;99.90
13264;DHT22;6700;51.988;7.646;2022-10-22T16:46:57;13.30;99.90
13264;DHT22;6700;51.988;7.646;2022-10-22T16:49:24;13.20;99.90
13264;DHT22;6700;51.988;7.646;2022-10-22T16:51:51;13.10;99.90
13264;DHT22;6700;51.988;7.646;2022-10-22T16:54:17;13.10;99.90
13264;DHT22;6700;51.988;7.646;2022-10-22T16:56:47;13.00;99.90
13264;DHT22;6700;51.988;7.646;2022-10-22T16:59:13;13.00;99.90
13264;DHT22;6700;51.988;7.646;2022-10-22T17:01:40;12.90;99.90
13264;DHT22;6700;51.988;7.646;2022-10-22T17:04:07;12.90;99.90
13264;DHT22;6700;51.988;7.646;2022-10-22T17:06:34;12.90;99.90
13264;DHT22;6700;51.988;7.646;2022-10-22T17:09:01;12.90;99.90
13264;DHT22;6700;51.988;7.646;2022-10-22T17:11:28;12.90;99.90
13264;DHT22;6700;51.988;7.646;2022-10-22T17:14:01;12.80;99.90
13264;DHT22;6700;51.988;7.646;2022-10-22T17:16:28;12.80;99.90
13264;DHT22;6700;51.988;7.646;2022-10-22T17:18:55;12.70;99.90
13264;DHT22;6700;51.988;7.646;2022-10-22T17:21:23;12.70;99.90
13264;DHT22;6700;51.988;7.646;2022-10-22T17:23:57;12.70;99.90
13264;DHT22;6700;51.988;7.646;2022-10-22T17:26:24;12.60;99.90
13264;DHT22;6700;51.988;7.646;2022-10-22T17:28:53;12.60;99.90
13264;DHT22;6700;51.988;7.646;2022-10-22T17:31:23;12.60;99.90
13264;DHT22;6700;51.988;7.646;2022-10-22T17:33:52;12.60;99.90
13264;DHT22;6700;51.988;7.646;2022-10-22T17:36:21;12.50;99.90
13264;DHT22;6700;51.988;7.646;2022-10-22T17:38:51;12.50;99.90
13264;DHT22;6700;51.988;7.646;2022-10-22T17:41:21;12.40;99.90